sensor_id;sensor_type;location;lat;lon;timestamp;P1;durP1;ratioP1;P2;durP2;ratioP2
49852;SDS011;35751;48.072;11.688;2023-01-20T00:01:38;13.02;;;7.53;;
49852;SDS011;35751;48.072;11.688;2023-01-20T00:04:04;11.27;;;6.75;;
49852;SDS011;35751;48.072;11.688;2023-01-20T00:06:30;12.00;;;7.22;;
49852;SDS011;35751;48.072;11.688;2023-01-20T00:08:56;13.30;;;6.82;;
49852;SDS011;35751;48.072;11.688;2023-01-20T00:11:24;9.13;;;5.82;;
49852;SDS011;35751;48.072;11.688;2023-01-20T00:13:53;12.55;;;7.00;;
49852;SDS011;35751;48.072;11.688;2023-01-20T00:16:23;10.98;;;6.32;;
49852;SDS011;35751;48.072;11.688;2023-01-20T00:18:49;9.23;;;5.83;;
49852;SDS011;35751;48.072;11.688;2023-01-20T00:21:14;10.93;;;6.20;;
49852;SDS011;35751;48.072;11.688;2023-01-20T00:23:43;9.30;;;6.07;;
49852;SDS011;35751;48.072;11.688;2023-01-20T00:26:13;13.20;;;6.87;;
49852;SDS011;35751;48.072;11.688;2023-01-20T00:28:46;10.97;;;5.97;;
49852;SDS011;35751;48.072;11.688;2023-01-20T00:31:13;9.70;;;5.60;;
49852;SDS011;35751;48.072;11.688;2023-01-20T00:33:53;12.93;;;6.03;;
49852;SDS011;35751;48.072;11.688;2023-01-20T00:36:20;9.23;;;5.40;;
49852;SDS011;35751;48.072;11.688;2023-01-20T00:38:46;9.07;;;5.07;;
49852;SDS011;35751;48.072;11.688;2023-01-20T00:41:13;7.68;;;4.57;;
49852;SDS011;35751;48.072;11.688;2023-01-20T00:43:38;11.25;;;5.40;;
49852;SDS011;35751;48.072;11.688;2023-01-20T00:46:04;9.73;;;4.43;;
49852;SDS011;35751;48.072;11.688;2023-01-20T00:48:30;7.30;;;4.53;;
49852;SDS011;35751;48.072;11.688;2023-01-20T00:50:56;5.72;;;3.97;;
49852;SDS011;35751;48.072;11.688;2023-01-20T00:53:21;7.00;;;4.60;;
49852;SDS011;35751;48.072;11.688;2023-01-20T00:55:47;9.90;;;5.75;;
49852;SDS011;35751;48.072;11.688;2023-01-20T00:58:12;7.22;;;4.57;;
49852;SDS011;35751;48.072;11.688;2023-01-20T01:00:37;6.78;;;4.53;;
49852;SDS011;35751;48.072;11.688;2023-01-20T01:03:03;6.43;;;4.03;;
49852;SDS011;35751;48.072;11.688;2023-01-20T01:05:29;7.35;;;4.63;;
49852;SDS011;35751;48.072;11.688;2023-01-20T01:07:55;7.72;;;5.22;;
49852;SDS011;35751;48.072;11.688;2023-01-20T01:10:20;7.93;;;3.92;;
49852;SDS011;35751;48.072;11.688;2023-01-20T01:12:46;8.75;;;4.95;;
49852;SDS011;35751;48.072;11.688;2023-01-20T01:15:11;9.77;;;5.22;;
49852;SDS011;35751;48.072;11.688;2023-01-20T01:17:36;7.15;;;5.05;;
49852;SDS011;35751;48.072;11.688;2023-01-20T01:20:02;8.45;;;5.22;;
49852;SDS011;35751;48.072;11.688;2023-01-20T01:22:29;6.07;;;4.75;;
49852;SDS011;35751;48.072;11.688;2023-01-20T01:24:55;7.28;;;4.78;;
49852;SDS011;35751;48.072;11.688;2023-01-20T01:27:21;10.60;;;5.30;;
49852;SDS011;35751;48.072;11.688;2023-01-20T01:29:46;11.18;;;5.18;;
49852;SDS011;35751;48.072;11.688;2023-01-20T01:32:11;10.43;;;5.57;;
49852;SDS011;35751;48.072;11.688;2023-01-20T01:34:37;8.07;;;4.95;;
49852;SDS011;35751;48.072;11.688;2023-01-20T01:37:02;8.70;;;4.75;;
49852;SDS011;35751;48.072;11.688;2023-01-20T01:39:27;9.35;;;6.22;;
49852;SDS011;35751;48.072;11.688;2023-01-20T01:41:53;7.55;;;5.53;;
49852;SDS011;35751;48.072;11.688;2023-01-20T01:44:18;9.57;;;4.97;;
49852;SDS011;35751;48.072;11.688;2023-01-20T01:46:44;9.55;;;4.97;;
49852;SDS011;35751;48.072;11.688;2023-01-20T01:49:12;6.65;;;4.88;;
49852;SDS011;35751;48.072;11.688;2023-01-20T01:51:43;6.43;;;4.57;;
49852;SDS011;35751;48.072;11.688;2023-01-20T01:54:17;9.67;;;5.87;;
49852;SDS011;35751;48.072;11.688;2023-01-20T01:56:46;9.53;;;5.03;;
49852;SDS011;35751;48.072;11.688;2023-01-20T01:59:12;7.60;;;5.00;;
49852;SDS011;35751;48.072;11.688;2023-01-20T02:01:38;7.90;;;6.50;;
49852;SDS011;35751;48.072;11.688;2023-01-20T02:04:15;6.78;;;4.60;;
49852;SDS011;35751;48.072;11.688;2023-01-20T02:06:43;9.83;;;4.90;;
49852;SDS011;35751;48.072;11.688;2023-01-20T02:09:10;14.30;;;5.30;;
49852;SDS011;35751;48.072;11.688;2023-01-20T02:11:38;10.37;;;5.40;;
49852;SDS011;35751;48.072;11.688;2023-01-20T02:14:05;7.25;;;4.93;;
49852;SDS011;35751;48.072;11.688;2023-01-20T02:22:16;10.33;;;5.53;;
49852;SDS011;35751;48.072;11.688;2023-01-20T02:25:03;10.20;;;6.20;;
49852;SDS011;35751;48.072;11.688;2023-01-20T02:32:57;7.43;;;4.63;;
49852;SDS011;35751;48.072;11.688;2023-01-20T02:35:36;7.95;;;4.55;;
49852;SDS011;35751;48.072;11.688;2023-01-20T02:49:13;9.98;;;6.07;;
49852;SDS011;35751;48.072;11.688;2023-01-20T02:51:49;9.30;;;5.20;;
49852;SDS011;35751;48.072;11.688;2023-01-20T02:54:18;10.37;;;6.17;;
49852;SDS011;35751;48.072;11.688;2023-01-20T02:56:44;7.70;;;5.10;;
49852;SDS011;35751;48.072;11.688;2023-01-20T02:59:12;8.17;;;4.47;;
49852;SDS011;35751;48.072;11.688;2023-01-20T03:01:44;9.53;;;5.80;;
49852;SDS011;35751;48.072;11.688;2023-01-20T03:04:14;9.60;;;4.97;;
49852;SDS011;35751;48.072;11.688;2023-01-20T03:06:45;9.13;;;5.27;;
49852;SDS011;35751;48.072;11.688;2023-01-20T03:09:13;11.43;;;5.90;;
49852;SDS011;35751;48.072;11.688;2023-01-20T03:11:44;9.40;;;4.93;;
49852;SDS011;35751;48.072;11.688;2023-01-20T03:14:15;8.23;;;4.90;;
49852;SDS011;35751;48.072;11.688;2023-01-20T03:16:41;7.77;;;4.50;;
49852;SDS011;35751;48.072;11.688;2023-01-20T03:19:07;10.07;;;5.37;;
49852;SDS011;35751;48.072;11.688;2023-01-20T03:21:33;8.27;;;5.33;;
49852;SDS011;35751;48.072;11.688;2023-01-20T03:23:59;8.17;;;4.67;;
49852;SDS011;35751;48.072;11.688;2023-01-20T03:26:25;10.70;;;4.27;;
49852;SDS011;35751;48.072;11.688;2023-01-20T03:28:51;8.60;;;5.57;;
49852;SDS011;35751;48.072;11.688;2023-01-20T03:38:45;10.55;;;4.60;;
49852;SDS011;35751;48.072;11.688;2023-01-20T03:46:51;9.63;;;4.30;;
49852;SDS011;35751;48.072;11.688;2023-01-20T03:49:20;7.27;;;4.33;;
49852;SDS011;35751;48.072;11.688;2023-01-20T03:51:59;7.13;;;4.33;;
49852;SDS011;35751;48.072;11.688;2023-01-20T03:57:33;8.27;;;3.97;;
49852;SDS011;35751;48.072;11.688;2023-01-20T04:00:03;8.37;;;4.43;;
49852;SDS011;35751;48.072;11.688;2023-01-20T04:02:31;7.90;;;5.10;;
49852;SDS011;35751;48.072;11.688;2023-01-20T04:04:57;6.77;;;3.70;;
49852;SDS011;35751;48.072;11.688;2023-01-20T04:07:23;13.00;;;5.17;;
49852;SDS011;35751;48.072;11.688;2023-01-20T04:09:51;5.50;;;4.17;;
49852;SDS011;35751;48.072;11.688;2023-01-20T04:12:18;9.47;;;4.57;;
49852;SDS011;35751;48.072;11.688;2023-01-20T04:14:44;6.35;;;3.97;;
49852;SDS011;35751;48.072;11.688;2023-01-20T04:17:09;7.63;;;4.07;;
49852;SDS011;35751;48.072;11.688;2023-01-20T04:19:35;8.50;;;4.00;;
49852;SDS011;35751;48.072;11.688;2023-01-20T04:22:05;6.97;;;4.68;;
49852;SDS011;35751;48.072;11.688;2023-01-20T04:27:08;4.55;;;3.60;;
49852;SDS011;35751;48.072;11.688;2023-01-20T04:29:33;7.03;;;4.10;;
49852;SDS011;35751;48.072;11.688;2023-01-20T04:32:00;5.00;;;3.75;;
49852;SDS011;35751;48.072;11.688;2023-01-20T04:34:26;7.03;;;4.28;;
49852;SDS011;35751;48.072;11.688;2023-01-20T04:36:51;6.15;;;4.13;;
49852;SDS011;35751;48.072;11.688;2023-01-20T04:39:19;6.20;;;3.38;;
49852;SDS011;35751;48.072;11.688;2023-01-20T04:41:45;4.05;;;3.30;;
49852;SDS011;35751;48.072;11.688;2023-01-20T04:44:11;6.13;;;3.50;;
49852;SDS011;35751;48.072;11.688;2023-01-20T04:46:36;4.20;;;2.90;;
49852;SDS011;35751;48.072;11.688;2023-01-20T04:49:02;7.00;;;3.67;;
49852;SDS011;35751;48.072;11.688;2023-01-20T04:51:27;5.23;;;3.33;;
49852;SDS011;35751;48.072;11.688;2023-01-20T04:53:56;6.97;;;3.40;;
49852;SDS011;35751;48.072;11.688;2023-01-20T04:56:21;6.97;;;3.97;;
49852;SDS011;35751;48.072;11.688;2023-01-20T04:58:47;5.10;;;3.40;;
49852;SDS011;35751;48.072;11.688;2023-01-20T05:01:12;5.73;;;3.63;;
49852;SDS011;35751;48.072;11.688;2023-01-20T05:03:38;8.48;;;4.38;;
49852;SDS011;35751;48.072;11.688;2023-01-20T05:06:03;7.82;;;4.35;;
49852;SDS011;35751;48.072;11.688;2023-01-20T05:08:30;8.48;;;4.03;;
49852;SDS011;35751;48.072;11.688;2023-01-20T05:10:55;7.20;;;4.73;;
49852;SDS011;35751;48.072;11.688;2023-01-20T05:13:21;6.07;;;4.30;;
49852;SDS011;35751;48.072;11.688;2023-01-20T05:15:46;8.00;;;4.55;;
49852;SDS011;35751;48.072;11.688;2023-01-20T05:18:12;9.32;;;5.28;;
49852;SDS011;35751;48.072;11.688;2023-01-20T05:20:38;8.32;;;4.97;;
49852;SDS011;35751;48.072;11.688;2023-01-20T05:23:03;10.13;;;5.18;;
49852;SDS011;35751;48.072;11.688;2023-01-20T05:25:29;8.45;;;4.80;;
49852;SDS011;35751;48.072;11.688;2023-01-20T05:27:54;8.20;;;5.55;;
49852;SDS011;35751;48.072;11.688;2023-01-20T05:30:20;8.07;;;5.50;;
49852;SDS011;35751;48.072;11.688;2023-01-20T05:32:47;7.90;;;4.93;;
49852;SDS011;35751;48.072;11.688;2023-01-20T05:35:13;8.30;;;5.20;;
49852;SDS011;35751;48.072;11.688;2023-01-20T05:37:39;8.88;;;5.72;;
49852;SDS011;35751;48.072;11.688;2023-01-20T05:40:04;15.25;;;6.03;;
49852;SDS011;35751;48.072;11.688;2023-01-20T05:42:30;9.77;;;5.97;;
49852;SDS011;35751;48.072;11.688;2023-01-20T05:44:56;11.15;;;6.80;;
49852;SDS011;35751;48.072;11.688;2023-01-20T05:47:22;10.17;;;6.33;;
49852;SDS011;35751;48.072;11.688;2023-01-20T05:49:47;9.30;;;6.03;;
49852;SDS011;35751;48.072;11.688;2023-01-20T05:52:12;10.50;;;6.32;;
49852;SDS011;35751;48.072;11.688;2023-01-20T05:54:38;10.70;;;5.90;;
49852;SDS011;35751;48.072;11.688;2023-01-20T05:57:03;14.80;;;7.03;;
49852;SDS011;35751;48.072;11.688;2023-01-20T05:59:29;10.37;;;6.03;;
49852;SDS011;35751;48.072;11.688;2023-01-20T06:01:55;7.90;;;5.93;;
49852;SDS011;35751;48.072;11.688;2023-01-20T06:04:20;9.17;;;5.57;;
49852;SDS011;35751;48.072;11.688;2023-01-20T06:06:45;11.95;;;6.90;;
49852;SDS011;35751;48.072;11.688;2023-01-20T06:09:11;11.77;;;7.40;;
49852;SDS011;35751;48.072;11.688;2023-01-20T06:11:36;11.35;;;6.15;;
49852;SDS011;35751;48.072;11.688;2023-01-20T06:14:02;13.50;;;6.80;;
49852;SDS011;35751;48.072;11.688;2023-01-20T06:16:27;9.90;;;6.45;;
49852;SDS011;35751;48.072;11.688;2023-01-20T06:18:54;10.27;;;6.35;;
49852;SDS011;35751;48.072;11.688;2023-01-20T06:21:19;13.90;;;7.23;;
49852;SDS011;35751;48.072;11.688;2023-01-20T06:23:45;12.70;;;7.63;;
49852;SDS011;35751;48.072;11.688;2023-01-20T06:26:11;11.35;;;6.80;;
49852;SDS011;35751;48.072;11.688;2023-01-20T06:28:37;14.13;;;7.13;;
49852;SDS011;35751;48.072;11.688;2023-01-20T06:31:07;13.15;;;7.57;;
49852;SDS011;35751;48.072;11.688;2023-01-20T06:33:37;12.30;;;6.80;;
49852;SDS011;35751;48.072;11.688;2023-01-20T06:36:02;10.60;;;6.65;;
49852;SDS011;35751;48.072;11.688;2023-01-20T06:38:30;11.05;;;7.07;;
49852;SDS011;35751;48.072;11.688;2023-01-20T06:40:56;14.43;;;7.30;;
49852;SDS011;35751;48.072;11.688;2023-01-20T06:43:23;12.38;;;7.55;;
49852;SDS011;35751;48.072;11.688;2023-01-20T06:45:48;11.80;;;7.88;;
49852;SDS011;35751;48.072;11.688;2023-01-20T06:48:14;15.82;;;9.00;;
49852;SDS011;35751;48.072;11.688;2023-01-20T06:50:39;17.95;;;8.23;;
49852;SDS011;35751;48.072;11.688;2023-01-20T06:53:05;11.98;;;7.53;;
49852;SDS011;35751;48.072;11.688;2023-01-20T06:55:30;15.45;;;8.65;;
49852;SDS011;35751;48.072;11.688;2023-01-20T06:57:56;13.95;;;8.95;;
49852;SDS011;35751;48.072;11.688;2023-01-20T07:00:22;15.13;;;8.73;;
49852;SDS011;35751;48.072;11.688;2023-01-20T07:02:47;12.85;;;6.78;;
49852;SDS011;35751;48.072;11.688;2023-01-20T07:05:13;10.68;;;8.23;;
49852;SDS011;35751;48.072;11.688;2023-01-20T07:07:39;11.82;;;8.43;;
49852;SDS011;35751;48.072;11.688;2023-01-20T07:10:09;14.02;;;8.20;;
49852;SDS011;35751;48.072;11.688;2023-01-20T07:12:35;16.05;;;8.57;;
49852;SDS011;35751;48.072;11.688;2023-01-20T07:15:00;16.13;;;7.70;;
49852;SDS011;35751;48.072;11.688;2023-01-20T07:17:26;17.67;;;9.98;;
49852;SDS011;35751;48.072;11.688;2023-01-20T07:19:51;12.38;;;7.40;;
49852;SDS011;35751;48.072;11.688;2023-01-20T07:22:16;12.77;;;7.65;;
49852;SDS011;35751;48.072;11.688;2023-01-20T07:24:43;13.75;;;7.00;;
49852;SDS011;35751;48.072;11.688;2023-01-20T07:27:09;12.05;;;6.93;;
49852;SDS011;35751;48.072;11.688;2023-01-20T07:29:35;13.55;;;7.65;;
49852;SDS011;35751;48.072;11.688;2023-01-20T07:32:02;12.88;;;8.50;;
49852;SDS011;35751;48.072;11.688;2023-01-20T07:34:27;14.30;;;7.45;;
49852;SDS011;35751;48.072;11.688;2023-01-20T07:36:54;12.32;;;7.10;;
49852;SDS011;35751;48.072;11.688;2023-01-20T07:39:20;16.00;;;7.53;;
49852;SDS011;35751;48.072;11.688;2023-01-20T07:41:46;12.75;;;8.13;;
49852;SDS011;35751;48.072;11.688;2023-01-20T07:44:13;13.63;;;7.65;;
49852;SDS011;35751;48.072;11.688;2023-01-20T07:46:39;14.05;;;8.23;;
49852;SDS011;35751;48.072;11.688;2023-01-20T07:49:05;14.32;;;7.68;;
49852;SDS011;35751;48.072;11.688;2023-01-20T07:51:31;13.82;;;7.68;;
49852;SDS011;35751;48.072;11.688;2023-01-20T07:53:57;10.80;;;7.70;;
49852;SDS011;35751;48.072;11.688;2023-01-20T07:56:24;11.93;;;7.20;;
49852;SDS011;35751;48.072;11.688;2023-01-20T07:58:52;15.30;;;7.68;;
49852;SDS011;35751;48.072;11.688;2023-01-20T08:03:44;13.85;;;6.53;;
49852;SDS011;35751;48.072;11.688;2023-01-20T08:06:11;12.60;;;7.20;;
49852;SDS011;35751;48.072;11.688;2023-01-20T08:08:37;11.50;;;7.05;;
49852;SDS011;35751;48.072;11.688;2023-01-20T08:11:04;14.45;;;8.20;;
49852;SDS011;35751;48.072;11.688;2023-01-20T08:13:30;10.35;;;6.70;;
49852;SDS011;35751;48.072;11.688;2023-01-20T08:18:52;12.13;;;7.88;;
49852;SDS011;35751;48.072;11.688;2023-01-20T08:21:28;12.60;;;7.20;;
49852;SDS011;35751;48.072;11.688;2023-01-20T08:23:55;12.90;;;7.85;;
49852;SDS011;35751;48.072;11.688;2023-01-20T08:26:23;15.77;;;8.48;;
49852;SDS011;35751;48.072;11.688;2023-01-20T08:28:49;10.77;;;7.43;;
49852;SDS011;35751;48.072;11.688;2023-01-20T08:31:16;13.05;;;8.18;;
49852;SDS011;35751;48.072;11.688;2023-01-20T08:33:43;14.23;;;8.15;;
49852;SDS011;35751;48.072;11.688;2023-01-20T08:38:39;10.63;;;7.18;;
49852;SDS011;35751;48.072;11.688;2023-01-20T08:41:06;13.95;;;7.70;;
49852;SDS011;35751;48.072;11.688;2023-01-20T08:43:32;10.45;;;7.53;;
49852;SDS011;35751;48.072;11.688;2023-01-20T08:45:59;12.95;;;7.93;;
49852;SDS011;35751;48.072;11.688;2023-01-20T08:48:28;11.82;;;7.60;;
49852;SDS011;35751;48.072;11.688;2023-01-20T08:50:54;11.55;;;6.95;;
49852;SDS011;35751;48.072;11.688;2023-01-20T08:53:19;13.35;;;7.32;;
49852;SDS011;35751;48.072;11.688;2023-01-20T08:55:53;11.30;;;7.10;;
49852;SDS011;35751;48.072;11.688;2023-01-20T08:58:20;12.85;;;8.00;;
49852;SDS011;35751;48.072;11.688;2023-01-20T09:00:46;11.10;;;6.90;;
49852;SDS011;35751;48.072;11.688;2023-01-20T09:03:12;10.73;;;7.40;;
49852;SDS011;35751;48.072;11.688;2023-01-20T09:05:37;9.10;;;7.07;;
49852;SDS011;35751;48.072;11.688;2023-01-20T09:08:06;12.13;;;6.03;;
49852;SDS011;35751;48.072;11.688;2023-01-20T09:10:32;9.10;;;6.38;;
49852;SDS011;35751;48.072;11.688;2023-01-20T09:12:58;11.85;;;6.35;;
49852;SDS011;35751;48.072;11.688;2023-01-20T09:15:24;11.20;;;7.30;;
49852;SDS011;35751;48.072;11.688;2023-01-20T09:17:50;14.02;;;6.45;;
49852;SDS011;35751;48.072;11.688;2023-01-20T09:20:17;13.40;;;6.88;;
49852;SDS011;35751;48.072;11.688;2023-01-20T09:22:43;9.90;;;6.68;;
49852;SDS011;35751;48.072;11.688;2023-01-20T09:25:09;10.52;;;6.07;;
49852;SDS011;35751;48.072;11.688;2023-01-20T09:27:34;11.57;;;6.82;;
49852;SDS011;35751;48.072;11.688;2023-01-20T09:30:01;11.93;;;6.70;;
49852;SDS011;35751;48.072;11.688;2023-01-20T09:32:28;9.15;;;6.10;;
49852;SDS011;35751;48.072;11.688;2023-01-20T09:34:57;16.33;;;6.75;;
49852;SDS011;35751;48.072;11.688;2023-01-20T09:37:23;12.85;;;6.85;;
49852;SDS011;35751;48.072;11.688;2023-01-20T09:40:12;14.02;;;7.45;;
49852;SDS011;35751;48.072;11.688;2023-01-20T09:43:46;9.50;;;5.65;;
49852;SDS011;35751;48.072;11.688;2023-01-20T09:51:36;8.90;;;5.72;;
49852;SDS011;35751;48.072;11.688;2023-01-20T09:54:28;9.20;;;5.57;;
49852;SDS011;35751;48.072;11.688;2023-01-20T09:57:01;12.30;;;5.75;;
49852;SDS011;35751;48.072;11.688;2023-01-20T09:59:35;10.82;;;5.57;;
49852;SDS011;35751;48.072;11.688;2023-01-20T10:02:05;9.80;;;5.97;;
49852;SDS011;35751;48.072;11.688;2023-01-20T10:04:50;6.97;;;4.38;;
49852;SDS011;35751;48.072;11.688;2023-01-20T10:12:56;9.55;;;5.43;;
49852;SDS011;35751;48.072;11.688;2023-01-20T10:15:34;7.82;;;4.70;;
49852;SDS011;35751;48.072;11.688;2023-01-20T10:18:14;7.28;;;4.57;;
49852;SDS011;35751;48.072;11.688;2023-01-20T10:20:50;9.00;;;5.35;;
49852;SDS011;35751;48.072;11.688;2023-01-20T10:23:28;8.95;;;5.50;;
49852;SDS011;35751;48.072;11.688;2023-01-20T10:28:42;9.93;;;6.95;;
49852;SDS011;35751;48.072;11.688;2023-01-20T10:31:35;9.75;;;5.95;;
49852;SDS011;35751;48.072;11.688;2023-01-20T10:34:08;7.75;;;4.72;;
49852;SDS011;35751;48.072;11.688;2023-01-20T10:36:43;6.80;;;5.90;;
49852;SDS011;35751;48.072;11.688;2023-01-20T10:39:25;8.05;;;6.18;;
49852;SDS011;35751;48.072;11.688;2023-01-20T10:42:12;7.63;;;5.40;;
49852;SDS011;35751;48.072;11.688;2023-01-20T10:44:45;13.07;;;6.45;;
49852;SDS011;35751;48.072;11.688;2023-01-20T10:52:40;9.30;;;5.57;;
49852;SDS011;35751;48.072;11.688;2023-01-20T10:58:41;10.23;;;5.53;;
49852;SDS011;35751;48.072;11.688;2023-01-20T11:00:44;10.63;;;6.75;;
49852;SDS011;35751;48.072;11.688;2023-01-20T11:03:14;11.20;;;7.35;;
49852;SDS011;35751;48.072;11.688;2023-01-20T11:05:45;9.52;;;5.95;;
49852;SDS011;35751;48.072;11.688;2023-01-20T11:08:14;11.52;;;7.53;;
49852;SDS011;35751;48.072;11.688;2023-01-20T11:10:40;12.27;;;8.10;;
49852;SDS011;35751;48.072;11.688;2023-01-20T11:13:07;9.80;;;7.28;;
49852;SDS011;35751;48.072;11.688;2023-01-20T11:15:40;11.00;;;6.30;;
49852;SDS011;35751;48.072;11.688;2023-01-20T11:20:42;12.57;;;7.00;;
49852;SDS011;35751;48.072;11.688;2023-01-20T11:23:18;13.75;;;6.35;;
49852;SDS011;35751;48.072;11.688;2023-01-20T11:25:54;10.00;;;5.97;;
49852;SDS011;35751;48.072;11.688;2023-01-20T11:28:21;11.75;;;6.90;;
49852;SDS011;35751;48.072;11.688;2023-01-20T11:30:50;9.73;;;5.78;;
49852;SDS011;35751;48.072;11.688;2023-01-20T11:33:22;11.80;;;6.32;;
49852;SDS011;35751;48.072;11.688;2023-01-20T11:38:41;10.80;;;6.45;;
49852;SDS011;35751;48.072;11.688;2023-01-20T11:41:17;11.13;;;5.53;;
49852;SDS011;35751;48.072;11.688;2023-01-20T11:43:45;8.40;;;4.82;;
49852;SDS011;35751;48.072;11.688;2023-01-20T11:48:43;6.43;;;4.57;;
49852;SDS011;35751;48.072;11.688;2023-01-20T11:51:23;8.20;;;4.95;;
49852;SDS011;35751;48.072;11.688;2023-01-20T11:54:13;8.82;;;5.10;;
49852;SDS011;35751;48.072;11.688;2023-01-20T11:56:40;7.65;;;4.47;;
49852;SDS011;35751;48.072;11.688;2023-01-20T11:59:17;6.85;;;4.85;;
49852;SDS011;35751;48.072;11.688;2023-01-20T12:01:53;3.75;;;2.63;;
49852;SDS011;35751;48.072;11.688;2023-01-20T12:07:34;3.40;;;2.40;;
49852;SDS011;35751;48.072;11.688;2023-01-20T12:10:10;5.65;;;3.53;;
49852;SDS011;35751;48.072;11.688;2023-01-20T12:12:58;6.28;;;2.95;;
49852;SDS011;35751;48.072;11.688;2023-01-20T12:15:32;4.40;;;3.42;;
49852;SDS011;35751;48.072;11.688;2023-01-20T12:23:25;4.32;;;2.80;;
49852;SDS011;35751;48.072;11.688;2023-01-20T12:26:01;6.22;;;3.22;;
49852;SDS011;35751;48.072;11.688;2023-01-20T12:28:37;5.63;;;4.50;;
49852;SDS011;35751;48.072;11.688;2023-01-20T12:31:08;5.13;;;3.13;;
49852;SDS011;35751;48.072;11.688;2023-01-20T12:33:34;5.13;;;4.18;;
49852;SDS011;35751;48.072;11.688;2023-01-20T13:11:22;8.82;;;4.97;;
49852;SDS011;35751;48.072;11.688;2023-01-20T13:16:30;7.18;;;5.13;;
49852;SDS011;35751;48.072;11.688;2023-01-20T13:19:06;7.72;;;5.28;;
49852;SDS011;35751;48.072;11.688;2023-01-20T13:21:51;9.05;;;4.80;;
49852;SDS011;35751;48.072;11.688;2023-01-20T13:24:17;9.30;;;5.72;;
49852;SDS011;35751;48.072;11.688;2023-01-20T13:26:48;8.30;;;5.47;;
49852;SDS011;35751;48.072;11.688;2023-01-20T13:29:51;11.57;;;6.88;;
49852;SDS011;35751;48.072;11.688;2023-01-20T13:32:28;11.98;;;7.70;;
49852;SDS011;35751;48.072;11.688;2023-01-20T13:37:50;9.82;;;7.28;;
49852;SDS011;35751;48.072;11.688;2023-01-20T13:43:03;11.75;;;7.45;;
49852;SDS011;35751;48.072;11.688;2023-01-20T13:48:28;9.55;;;5.63;;
49852;SDS011;35751;48.072;11.688;2023-01-20T13:50:54;10.40;;;6.78;;
49852;SDS011;35751;48.072;11.688;2023-01-20T13:53:40;11.25;;;8.50;;
49852;SDS011;35751;48.072;11.688;2023-01-20T13:56:29;12.30;;;7.13;;
49852;SDS011;35751;48.072;11.688;2023-01-20T13:58:56;11.13;;;7.35;;
49852;SDS011;35751;48.072;11.688;2023-01-20T14:01:23;12.57;;;7.68;;
49852;SDS011;35751;48.072;11.688;2023-01-20T14:04:00;15.88;;;8.52;;
49852;SDS011;35751;48.072;11.688;2023-01-20T14:06:28;13.05;;;7.78;;
49852;SDS011;35751;48.072;11.688;2023-01-20T14:08:54;15.10;;;8.52;;
49852;SDS011;35751;48.072;11.688;2023-01-20T14:11:21;14.20;;;9.32;;
49852;SDS011;35751;48.072;11.688;2023-01-20T14:13:52;14.73;;;9.85;;
49852;SDS011;35751;48.072;11.688;2023-01-20T14:16:29;16.95;;;9.63;;
49852;SDS011;35751;48.072;11.688;2023-01-20T14:19:18;13.85;;;8.75;;
49852;SDS011;35751;48.072;11.688;2023-01-20T14:21:49;13.75;;;9.32;;
49852;SDS011;35751;48.072;11.688;2023-01-20T14:24:24;14.10;;;9.75;;
49852;SDS011;35751;48.072;11.688;2023-01-20T14:26:50;17.83;;;10.35;;
49852;SDS011;35751;48.072;11.688;2023-01-20T14:30:36;18.13;;;10.75;;
49852;SDS011;35751;48.072;11.688;2023-01-20T14:32:43;18.40;;;11.50;;
49852;SDS011;35751;48.072;11.688;2023-01-20T14:35:13;17.48;;;11.20;;
49852;SDS011;35751;48.072;11.688;2023-01-20T14:37:40;17.15;;;10.90;;
49852;SDS011;35751;48.072;11.688;2023-01-20T14:40:23;20.15;;;11.50;;
49852;SDS011;35751;48.072;11.688;2023-01-20T14:43:00;15.95;;;10.90;;
49852;SDS011;35751;48.072;11.688;2023-01-20T14:45:27;17.63;;;11.45;;
49852;SDS011;35751;48.072;11.688;2023-01-20T14:47:55;17.83;;;11.43;;
49852;SDS011;35751;48.072;11.688;2023-01-20T14:50:21;22.83;;;13.60;;
49852;SDS011;35751;48.072;11.688;2023-01-20T14:52:47;20.00;;;12.80;;
49852;SDS011;35751;48.072;11.688;2023-01-20T14:58:13;18.50;;;12.00;;
49852;SDS011;35751;48.072;11.688;2023-01-20T15:00:42;18.45;;;10.70;;
49852;SDS011;35751;48.072;11.688;2023-01-20T15:08:19;20.13;;;12.20;;
49852;SDS011;35751;48.072;11.688;2023-01-20T15:16:24;26.75;;;16.92;;
49852;SDS011;35751;48.072;11.688;2023-01-20T15:21:40;22.13;;;12.70;;
49852;SDS011;35751;48.072;11.688;2023-01-20T15:26:37;31.30;;;16.48;;
49852;SDS011;35751;48.072;11.688;2023-01-20T15:29:19;35.70;;;20.42;;
49852;SDS011;35751;48.072;11.688;2023-01-20T15:31:57;27.42;;;14.75;;
49852;SDS011;35751;48.072;11.688;2023-01-20T15:34:24;29.48;;;16.83;;
49852;SDS011;35751;48.072;11.688;2023-01-20T15:36:50;24.77;;;14.65;;
49852;SDS011;35751;48.072;11.688;2023-01-20T15:39:17;23.88;;;13.05;;
49852;SDS011;35751;48.072;11.688;2023-01-20T15:41:44;21.42;;;12.95;;
49852;SDS011;35751;48.072;11.688;2023-01-20T15:44:12;26.15;;;15.85;;
49852;SDS011;35751;48.072;11.688;2023-01-20T15:46:38;27.02;;;15.57;;
49852;SDS011;35751;48.072;11.688;2023-01-20T15:49:08;63.45;;;29.35;;
49852;SDS011;35751;48.072;11.688;2023-01-20T15:51:35;43.05;;;22.13;;
49852;SDS011;35751;48.072;11.688;2023-01-20T15:54:00;34.65;;;17.10;;
49852;SDS011;35751;48.072;11.688;2023-01-20T15:56:27;36.67;;;19.63;;
49852;SDS011;35751;48.072;11.688;2023-01-20T15:58:53;61.15;;;33.47;;
49852;SDS011;35751;48.072;11.688;2023-01-20T16:01:19;43.92;;;27.00;;
49852;SDS011;35751;48.072;11.688;2023-01-20T16:03:49;69.10;;;35.45;;
49852;SDS011;35751;48.072;11.688;2023-01-20T16:06:24;38.30;;;21.08;;
49852;SDS011;35751;48.072;11.688;2023-01-20T16:08:51;51.33;;;26.10;;
49852;SDS011;35751;48.072;11.688;2023-01-20T16:11:17;59.38;;;29.73;;
49852;SDS011;35751;48.072;11.688;2023-01-20T16:13:43;39.60;;;22.33;;
49852;SDS011;35751;48.072;11.688;2023-01-20T16:16:14;33.08;;;18.60;;
49852;SDS011;35751;48.072;11.688;2023-01-20T16:18:41;27.48;;;17.05;;
49852;SDS011;35751;48.072;11.688;2023-01-20T16:21:07;30.45;;;18.08;;
49852;SDS011;35751;48.072;11.688;2023-01-20T16:23:34;40.28;;;21.08;;
49852;SDS011;35751;48.072;11.688;2023-01-20T16:26:00;36.92;;;18.77;;
49852;SDS011;35751;48.072;11.688;2023-01-20T16:28:25;42.97;;;22.42;;
49852;SDS011;35751;48.072;11.688;2023-01-20T16:30:51;40.47;;;22.35;;
49852;SDS011;35751;48.072;11.688;2023-01-20T16:33:24;48.47;;;23.90;;
49852;SDS011;35751;48.072;11.688;2023-01-20T16:35:54;34.13;;;19.13;;
49852;SDS011;35751;48.072;11.688;2023-01-20T16:38:21;43.17;;;22.73;;
49852;SDS011;35751;48.072;11.688;2023-01-20T16:40:49;37.85;;;19.40;;
49852;SDS011;35751;48.072;11.688;2023-01-20T16:43:17;38.45;;;19.83;;
49852;SDS011;35751;48.072;11.688;2023-01-20T16:45:43;37.47;;;19.48;;
49852;SDS011;35751;48.072;11.688;2023-01-20T16:48:14;37.85;;;23.25;;
49852;SDS011;35751;48.072;11.688;2023-01-20T16:50:39;43.55;;;25.25;;
49852;SDS011;35751;48.072;11.688;2023-01-20T16:53:05;37.13;;;22.05;;
49852;SDS011;35751;48.072;11.688;2023-01-20T16:55:30;35.97;;;20.40;;
49852;SDS011;35751;48.072;11.688;2023-01-20T16:57:55;41.47;;;24.55;;
49852;SDS011;35751;48.072;11.688;2023-01-20T17:00:21;36.65;;;23.20;;
49852;SDS011;35751;48.072;11.688;2023-01-20T17:02:50;38.53;;;23.77;;
49852;SDS011;35751;48.072;11.688;2023-01-20T17:05:16;41.72;;;20.33;;
49852;SDS011;35751;48.072;11.688;2023-01-20T17:07:46;32.13;;;19.65;;
49852;SDS011;35751;48.072;11.688;2023-01-20T17:10:13;36.03;;;20.08;;